ADDS METAR Data INFO
IDs: Format: Raw Decoded Include TAF

Data at: 0058 UTC 22 Oct 2017

KMCI 220053Z 28009KT 1SM R19R/P6000FT +TSRA BR BKN048CB OVC085 16/16 A2985 RMK AO2 WSHFT 2340 LTG DSNT ALQDS SLP101 TS ALQDS MOV NE P0080 T01560156 $
KMCI 220023Z 25008KT 1 1/4SM +TSRA BR BKN036 OVC060CB 16/16 A2983 RMK AO2 WSHFT 2340 LTG DSNT ALQDS TS ALQDS MOV NE P0042 T01560156 $
KMCI 212356Z 26014G26KT 2SM +TSRA BR FEW023 BKN055CB OVC070 17/16 A2985 RMK AO2 WSHFT 2340 LTG DSNT SW-N TS ALQDS MOV NE P0001 T01720156
KMCI 212353Z 26018G26KT 4SM -TSRA SCT035CB BKN055 OVC095 18/16 A2985 RMK AO2 PK WND 27028/2342 WSHFT 2338 LTG DSNT SW-N SLP100 TS SW-NW MOV NE P0000 60000 T01830156 10239 20183 53017
KMCI 212347Z 26013G28KT 10SM TS SCT035CB BKN055 OVC095 20/16 A2985 RMK AO2 PK WND 27028/2342 WSHFT 2332 LTG DSNT ALQDS PRESRR TS SW-NW MOV NE
KMCI 212324Z 16013KT 10SM VCTS FEW070CB OVC090 23/18 A2979 RMK AO2 LTG DSNT SW-N TS VC SW-W MOV NE T02280183
KMCI 212253Z 15012KT 10SM SCT060 OVC080 23/18 A2978 RMK AO2 LTG DSNT W-N SLP077 T02280183
KMCI 212153Z 17013KT 10SM FEW065 OVC080 23/18 A2980 RMK AO2 SLP081 T02330183
KMCI 212053Z 19014G20KT 10SM OVC065 23/18 A2980 RMK AO2 SLP082 T02330178 58001
KMCI 211953Z 19015KT 10SM OVC060 23/18 A2980 RMK AO2 PK WND 21030/1911 SLP082 T02330178
KMCI 211853Z 21020G26KT 10SM OVC031 23/17 A2981 RMK AO2 PK WND 19036/1820 SLP086 T02280172
KMCI 211753Z 19023G30KT 9SM OVC027 22/17 A2980 RMK AO2 PK WND 18033/1656 SLP084 T02220172 10228 20183 58006
KMCI 211710Z 18021G27KT 10SM BKN020 22/17 A2980 RMK AO2 PK WND 18033/1656 T02170172
KMCI 211653Z 18025G33KT 10SM SCT020 SCT044 22/17 A2980 RMK AO2 PK WND 18033/1645 SLP084 T02220172
KMCI 211553Z 19018G24KT 10SM OVC018 19/16 A2983 RMK AO2 PK WND 17030/1519 SLP093 T01940161
KMCI 211453Z 18022G29KT 10SM OVC019 19/16 A2982 RMK AO2 PK WND 18030/1406 SLP091 T01940156 53001
KMCI 211353Z 18018G26KT 10SM OVC020 19/15 A2982 RMK AO2 PK WND 17027/1331 SLP091 T01890150
KMCI 211310Z 18020G26KT 10SM BKN022 18/15 A2981 RMK AO2 PK WND 18027/1258 T01830150
KMCI 211253Z 18019G26KT 10SM BKN042 18/15 A2981 RMK AO2 PK WND 19032/1155 SLP086 T01830150
KMCI 211212Z 18019G26KT 10SM SCT022 OVC039 18/15 A2981 RMK AO2 PK WND 19032/1155 T01830150
KMCI 211153Z 18021G28KT 10SM BKN021 OVC035 19/14 A2982 RMK AO2 PK WND 20030/1106 SLP090 T01890144 10189 20172 53006
KMCI 211053Z 19021G31KT 10SM OVC023 19/14 A2981 RMK AO2 PK WND 18033/1022 SLP088 T01890144
KMCI 210953Z 18020G27KT 10SM OVC023 18/14 A2980 RMK AO2 PK WND 17031/0926 SLP084 T01830144
KMCI 210938Z 19020G27KT 10SM BKN023 18/14 A2980 RMK AO2 PK WND 17031/0926 T01780139
KMCI 210853Z 18023G29KT 10SM CLR 18/14 A2980 RMK AO2 PK WND 18032/0809 SLP084 T01780139 56014
KMCI 210753Z 18017G25KT 10SM CLR 17/14 A2982 RMK AO2 PK WND 17028/0735 SLP089 T01720139
KMCI 210653Z 17023G28KT 10SM CLR 18/14 A2983 RMK AO2 PK WND 17030/0635 SLP093 T01830144
KMCI 210553Z 18017G25KT 10SM SCT130 19/14 A2985 RMK AO2 PK WND 18030/0458 SLP098 T01890144 10206 20189 402330128 58002
KMCI 210453Z 18019G27KT 9SM CLR 19/14 A2985 RMK AO2 PK WND 17030/0409 SLP101 T01940139
KMCI 210353Z 18017G33KT 10SM SCT200 19/13 A2986 RMK AO2 PK WND 18033/0346 SLP103 T01940133
KMCI 210253Z 17015G25KT 10SM FEW200 19/13 A2985 RMK AO2 SLP102 T01940133 58002
KMCI 210153Z 17017G23KT 10SM FEW200 19/13 A2985 RMK AO2 SLP103 T01940133
KMCI 210053Z 17012KT 10SM CLR 19/14 A2986 RMK AO2 SLP106 T01940139
KMCI 202353Z 17015KT 10SM FEW200 21/14 A2986 RMK AO2 SLP104 T02060139 10233 20206 56014
KMCI 202253Z 17018G23KT 10SM FEW200 22/14 A2986 RMK AO2 SLP106 T02170144
KMCI 202153Z 16018G26KT 10SM FEW033 BKN200 22/15 A2988 RMK AO2 PK WND 15026/2149 SLP113 T02220150
KMCI 202053Z 16020G23KT 10SM FEW033 BKN200 22/15 A2990 RMK AO2 SLP118 T02220150 56031
KMCI 201953Z 16016G21KT 10SM FEW033 FEW100 BKN200 22/15 A2992 RMK AO2 PK WND 16027/1908 SLP123 T02220150
KMCI 201853Z 17017G23KT 10SM BKN200 23/15 A2995 RMK AO2 PK WND 18027/1813 SLP135 T02330150
KMCI 201753Z 18018G23KT 9SM CLR 21/14 A3000 RMK AO2 SLP151 T02110139 10222 20133 58024
KMCI 201653Z 18015KT 10SM BKN200 22/13 A3003 RMK AO2 SLP162 T02170133
KMCI 201553Z 19012KT 10SM BKN200 19/13 A3005 RMK AO2 SLP169 T01940133
KMCI 201453Z 19013KT 10SM BKN200 18/13 A3007 RMK AO2 SLP176 T01830128 56001
KMCI 201353Z 18012KT 10SM BKN200 16/12 A3007 RMK AO2 SLP177 T01560117